sensor_id;sensor_type;location;lat;lon;timestamp;pressure;altitude;pressure_sealevel;temperature;humidity
37878;BME280;23715;53.652;8.516;2023-02-03T00:07:11;102241.38;;;8.07;100.00
37878;BME280;23715;53.652;8.516;2023-02-03T00:12:15;102244.98;;;8.06;100.00
37878;BME280;23715;53.652;8.516;2023-02-03T00:34:00;102218.41;;;8.19;100.00
37878;BME280;23715;53.652;8.516;2023-02-03T00:44:30;102196.62;;;8.34;100.00
37878;BME280;23715;53.652;8.516;2023-02-03T00:54:50;102167.69;;;8.16;100.00
37878;BME280;23715;53.652;8.516;2023-02-03T01:05:13;102155.66;;;8.23;100.00
37878;BME280;23715;53.652;8.516;2023-02-03T01:10:16;102130.73;;;8.14;100.00
37878;BME280;23715;53.652;8.516;2023-02-03T01:15:19;102115.38;;;8.25;100.00
37878;BME280;23715;53.652;8.516;2023-02-03T01:20:39;102104.84;;;8.37;100.00
37878;BME280;23715;53.652;8.516;2023-02-03T01:25:39;102090.02;;;8.55;100.00
37878;BME280;23715;53.652;8.516;2023-02-03T01:41:36;102001.17;;;8.54;100.00
37878;BME280;23715;53.652;8.516;2023-02-03T01:52:55;102037.62;;;8.33;100.00
37878;BME280;23715;53.652;8.516;2023-02-03T02:14:32;102034.17;;;8.31;100.00
37878;BME280;23715;53.652;8.516;2023-02-03T02:57:05;101908.05;;;8.42;100.00
37878;BME280;23715;53.652;8.516;2023-02-03T03:02:39;101918.05;;;8.54;100.00
37878;BME280;23715;53.652;8.516;2023-02-03T03:13:25;101889.69;;;8.43;100.00
37878;BME280;23715;53.652;8.516;2023-02-03T03:36:09;101915.16;;;8.43;100.00
37878;BME280;23715;53.652;8.516;2023-02-03T03:46:51;101933.38;;;8.36;100.00
37878;BME280;23715;53.652;8.516;2023-02-03T03:52:05;101903.70;;;8.62;100.00
37878;BME280;23715;53.652;8.516;2023-02-03T04:36:25;101798.92;;;8.44;100.00
37878;BME280;23715;53.652;8.516;2023-02-03T05:23:10;101726.27;;;8.48;100.00
37878;BME280;23715;53.652;8.516;2023-02-03T05:33:29;101737.36;;;8.49;100.00
37878;BME280;23715;53.652;8.516;2023-02-03T05:38:46;101751.69;;;8.34;100.00
37878;BME280;23715;53.652;8.516;2023-02-03T05:43:58;101743.20;;;8.42;100.00
37878;BME280;23715;53.652;8.516;2023-02-03T05:49:19;101749.73;;;8.52;100.00
37878;BME280;23715;53.652;8.516;2023-02-03T05:54:21;101747.05;;;8.52;100.00
37878;BME280;23715;53.652;8.516;2023-02-03T05:59:22;101733.20;;;8.36;100.00
37878;BME280;23715;53.652;8.516;2023-02-03T06:04:22;101742.63;;;8.51;100.00
37878;BME280;23715;53.652;8.516;2023-02-03T06:45:45;101705.09;;;8.65;100.00
37878;BME280;23715;53.652;8.516;2023-02-03T06:56:12;101739.28;;;8.47;100.00
37878;BME280;23715;53.652;8.516;2023-02-03T07:17:53;101810.72;;;8.25;100.00
37878;BME280;23715;53.652;8.516;2023-02-03T07:46:21;101894.99;;;8.35;100.00
37878;BME280;23715;53.652;8.516;2023-02-03T07:51:42;101910.48;;;8.30;100.00
37878;BME280;23715;53.652;8.516;2023-02-03T07:56:42;101928.78;;;8.38;100.00
37878;BME280;23715;53.652;8.516;2023-02-03T08:01:43;101911.93;;;8.36;100.00
37878;BME280;23715;53.652;8.516;2023-02-03T08:06:43;101950.03;;;8.11;100.00
37878;BME280;23715;53.652;8.516;2023-02-03T08:11:43;102000.77;;;7.98;100.00
37878;BME280;23715;53.652;8.516;2023-02-03T08:16:43;102004.34;;;7.74;100.00
37878;BME280;23715;53.652;8.516;2023-02-03T08:21:44;102005.95;;;7.45;100.00
37878;BME280;23715;53.652;8.516;2023-02-03T08:26:44;101986.77;;;7.77;100.00
37878;BME280;23715;53.652;8.516;2023-02-03T08:31:44;101957.40;;;7.59;100.00
37878;BME280;23715;53.652;8.516;2023-02-03T08:36:45;101932.86;;;7.83;100.00
37878;BME280;23715;53.652;8.516;2023-02-03T08:41:46;101938.97;;;7.78;100.00
37878;BME280;23715;53.652;8.516;2023-02-03T08:51:55;101993.97;;;7.68;100.00
37878;BME280;23715;53.652;8.516;2023-02-03T08:56:56;102001.58;;;7.59;100.00
37878;BME280;23715;53.652;8.516;2023-02-03T09:01:56;102021.72;;;7.67;100.00
37878;BME280;23715;53.652;8.516;2023-02-03T09:07:03;102027.38;;;7.60;100.00
37878;BME280;23715;53.652;8.516;2023-02-03T09:12:05;102038.63;;;7.67;100.00
37878;BME280;23715;53.652;8.516;2023-02-03T09:17:06;102040.45;;;7.67;100.00
37878;BME280;23715;53.652;8.516;2023-02-03T09:22:06;102053.59;;;7.87;100.00
37878;BME280;23715;53.652;8.516;2023-02-03T09:27:13;102004.09;;;7.78;100.00
37878;BME280;23715;53.652;8.516;2023-02-03T09:32:13;101975.20;;;7.76;100.00
37878;BME280;23715;53.652;8.516;2023-02-03T09:37:15;101975.63;;;7.69;100.00
37878;BME280;23715;53.652;8.516;2023-02-03T09:47:39;101995.62;;;8.02;100.00
37878;BME280;23715;53.652;8.516;2023-02-03T09:52:41;101979.16;;;7.85;100.00
37878;BME280;23715;53.652;8.516;2023-02-03T09:57:51;101990.06;;;7.82;100.00
37878;BME280;23715;53.652;8.516;2023-02-03T10:18:56;102020.05;;;8.05;100.00
37878;BME280;23715;53.652;8.516;2023-02-03T10:23:59;101997.04;;;8.00;100.00
37878;BME280;23715;53.652;8.516;2023-02-03T10:29:18;101995.94;;;8.05;100.00
37878;BME280;23715;53.652;8.516;2023-02-03T10:34:19;102009.72;;;7.90;100.00
37878;BME280;23715;53.652;8.516;2023-02-03T10:39:30;102021.23;;;7.83;100.00
37878;BME280;23715;53.652;8.516;2023-02-03T10:44:44;101989.05;;;8.08;100.00
37878;BME280;23715;53.652;8.516;2023-02-03T10:49:34;101972.56;;;7.99;100.00
37878;BME280;23715;53.652;8.516;2023-02-03T10:54:35;101961.11;;;8.05;100.00
37878;BME280;23715;53.652;8.516;2023-02-03T10:59:44;101944.34;;;8.01;100.00
37878;BME280;23715;53.652;8.516;2023-02-03T11:04:39;101956.95;;;7.76;100.00
37878;BME280;23715;53.652;8.516;2023-02-03T11:09:41;101930.95;;;7.85;100.00
37878;BME280;23715;53.652;8.516;2023-02-03T11:14:45;101925.68;;;7.99;100.00
37878;BME280;23715;53.652;8.516;2023-02-03T11:19:48;101914.30;;;8.26;100.00
37878;BME280;23715;53.652;8.516;2023-02-03T11:24:49;101899.56;;;8.26;100.00
37878;BME280;23715;53.652;8.516;2023-02-03T11:29:53;101925.77;;;8.44;100.00
37878;BME280;23715;53.652;8.516;2023-02-03T11:34:57;101921.56;;;8.24;100.00
37878;BME280;23715;53.652;8.516;2023-02-03T11:40:21;101929.66;;;8.15;100.00
37878;BME280;23715;53.652;8.516;2023-02-03T11:45:37;101929.53;;;8.03;100.00
37878;BME280;23715;53.652;8.516;2023-02-03T12:12:17;101902.38;;;8.09;100.00
37878;BME280;23715;53.652;8.516;2023-02-03T12:17:26;101922.16;;;8.06;100.00
37878;BME280;23715;53.652;8.516;2023-02-03T12:22:39;101927.52;;;8.06;100.00
37878;BME280;23715;53.652;8.516;2023-02-03T12:27:55;101927.17;;;7.89;100.00
37878;BME280;23715;53.652;8.516;2023-02-03T12:33:03;101931.20;;;7.96;100.00
37878;BME280;23715;53.652;8.516;2023-02-03T12:38:16;101937.88;;;7.73;100.00
37878;BME280;23715;53.652;8.516;2023-02-03T12:59:33;101975.28;;;7.75;100.00
37878;BME280;23715;53.652;8.516;2023-02-03T13:04:56;101965.56;;;7.65;100.00
37878;BME280;23715;53.652;8.516;2023-02-03T13:10:00;101983.39;;;7.57;100.00
37878;BME280;23715;53.652;8.516;2023-02-03T13:15:21;101984.14;;;7.84;100.00
37878;BME280;23715;53.652;8.516;2023-02-03T13:20:30;101993.33;;;7.71;100.00
37878;BME280;23715;53.652;8.516;2023-02-03T13:41:45;102007.26;;;7.78;100.00
37878;BME280;23715;53.652;8.516;2023-02-03T13:46:46;102028.92;;;7.49;100.00
37878;BME280;23715;53.652;8.516;2023-02-03T13:51:46;102031.71;;;7.38;100.00
37878;BME280;23715;53.652;8.516;2023-02-03T13:56:52;102037.87;;;7.56;100.00
37878;BME280;23715;53.652;8.516;2023-02-03T14:07:33;102065.61;;;7.47;100.00
37878;BME280;23715;53.652;8.516;2023-02-03T14:12:36;102045.69;;;7.77;100.00
37878;BME280;23715;53.652;8.516;2023-02-03T14:22:45;102057.45;;;7.66;100.00
37878;BME280;23715;53.652;8.516;2023-02-03T14:27:59;102069.77;;;7.61;100.00
37878;BME280;23715;53.652;8.516;2023-02-03T14:33:01;102077.09;;;7.57;100.00
37878;BME280;23715;53.652;8.516;2023-02-03T14:38:09;102090.44;;;7.66;100.00
37878;BME280;23715;53.652;8.516;2023-02-03T14:59:59;102095.23;;;7.68;100.00
37878;BME280;23715;53.652;8.516;2023-02-03T15:10:39;102119.14;;;7.55;100.00
37878;BME280;23715;53.652;8.516;2023-02-03T15:15:29;102130.55;;;7.50;100.00
37878;BME280;23715;53.652;8.516;2023-02-03T15:20:39;102154.55;;;7.60;100.00
37878;BME280;23715;53.652;8.516;2023-02-03T15:25:39;102160.20;;;7.72;100.00
37878;BME280;23715;53.652;8.516;2023-02-03T15:30:39;102160.08;;;7.57;100.00
37878;BME280;23715;53.652;8.516;2023-02-03T15:35:41;102174.50;;;7.46;100.00
37878;BME280;23715;53.652;8.516;2023-02-03T15:40:48;102179.50;;;7.70;100.00
37878;BME280;23715;53.652;8.516;2023-02-03T15:46:07;102198.09;;;7.38;100.00
37878;BME280;23715;53.652;8.516;2023-02-03T15:56:39;102200.08;;;7.34;100.00
37878;BME280;23715;53.652;8.516;2023-02-03T16:01:40;102207.45;;;7.20;100.00
37878;BME280;23715;53.652;8.516;2023-02-03T16:06:43;102211.23;;;7.34;100.00
37878;BME280;23715;53.652;8.516;2023-02-03T16:11:43;102231.73;;;7.07;100.00
37878;BME280;23715;53.652;8.516;2023-02-03T16:16:48;102237.77;;;7.21;100.00
37878;BME280;23715;53.652;8.516;2023-02-03T16:21:52;102253.27;;;7.32;100.00
37878;BME280;23715;53.652;8.516;2023-02-03T16:26:52;102254.94;;;7.43;100.00
37878;BME280;23715;53.652;8.516;2023-02-03T16:31:56;102246.28;;;7.47;100.00
37878;BME280;23715;53.652;8.516;2023-02-03T16:37:26;102241.41;;;7.46;100.00
37878;BME280;23715;53.652;8.516;2023-02-03T16:42:47;102241.50;;;7.53;100.00
37878;BME280;23715;53.652;8.516;2023-02-03T16:48:04;102247.31;;;7.44;100.00
37878;BME280;23715;53.652;8.516;2023-02-03T16:53:30;102232.12;;;7.45;100.00
37878;BME280;23715;53.652;8.516;2023-02-03T16:58:31;102234.55;;;7.49;100.00
37878;BME280;23715;53.652;8.516;2023-02-03T17:03:33;102243.22;;;7.54;100.00
37878;BME280;23715;53.652;8.516;2023-02-03T17:08:34;102248.50;;;7.56;100.00
37878;BME280;23715;53.652;8.516;2023-02-03T17:13:35;102279.48;;;7.34;100.00
37878;BME280;23715;53.652;8.516;2023-02-03T17:18:35;102281.88;;;7.40;100.00
37878;BME280;23715;53.652;8.516;2023-02-03T17:23:36;102282.33;;;7.39;100.00
37878;BME280;23715;53.652;8.516;2023-02-03T17:28:39;102286.89;;;7.37;100.00
37878;BME280;23715;53.652;8.516;2023-02-03T17:33:41;102290.91;;;7.29;100.00
37878;BME280;23715;53.652;8.516;2023-02-03T17:38:44;102299.98;;;7.52;100.00
37878;BME280;23715;53.652;8.516;2023-02-03T17:48:44;102325.18;;;7.48;100.00
37878;BME280;23715;53.652;8.516;2023-02-03T17:53:45;102343.20;;;7.45;100.00
37878;BME280;23715;53.652;8.516;2023-02-03T17:58:53;102327.76;;;7.41;100.00
37878;BME280;23715;53.652;8.516;2023-02-03T18:03:59;102349.92;;;7.53;100.00
37878;BME280;23715;53.652;8.516;2023-02-03T18:08:57;102354.38;;;7.44;100.00
37878;BME280;23715;53.652;8.516;2023-02-03T18:14:03;102364.94;;;7.28;100.00
37878;BME280;23715;53.652;8.516;2023-02-03T18:19:11;102360.11;;;7.36;100.00
37878;BME280;23715;53.652;8.516;2023-02-03T18:24:13;102409.52;;;7.19;100.00
37878;BME280;23715;53.652;8.516;2023-02-03T18:29:19;102420.46;;;7.33;100.00
37878;BME280;23715;53.652;8.516;2023-02-03T18:34:25;102430.42;;;7.11;100.00
37878;BME280;23715;53.652;8.516;2023-02-03T18:39:32;102453.61;;;7.20;100.00
37878;BME280;23715;53.652;8.516;2023-02-03T18:44:33;102484.75;;;7.42;100.00
37878;BME280;23715;53.652;8.516;2023-02-03T18:49:35;102473.00;;;7.26;100.00
37878;BME280;23715;53.652;8.516;2023-02-03T18:54:46;102490.17;;;7.30;100.00
37878;BME280;23715;53.652;8.516;2023-02-03T18:59:55;102511.20;;;7.29;100.00
37878;BME280;23715;53.652;8.516;2023-02-03T19:05:01;102516.42;;;7.22;100.00
37878;BME280;23715;53.652;8.516;2023-02-03T19:15:08;102565.00;;;7.02;100.00
37878;BME280;23715;53.652;8.516;2023-02-03T19:20:09;102578.42;;;7.32;100.00
37878;BME280;23715;53.652;8.516;2023-02-03T19:25:12;102580.72;;;7.10;100.00
37878;BME280;23715;53.652;8.516;2023-02-03T19:35:12;102623.19;;;7.28;100.00
37878;BME280;23715;53.652;8.516;2023-02-03T19:40:13;102636.72;;;7.25;100.00
37878;BME280;23715;53.652;8.516;2023-02-03T19:45:13;102635.51;;;7.12;100.00
37878;BME280;23715;53.652;8.516;2023-02-03T19:50:15;102665.59;;;6.96;100.00
37878;BME280;23715;53.652;8.516;2023-02-03T19:55:16;102670.78;;;6.99;100.00
37878;BME280;23715;53.652;8.516;2023-02-03T20:05:18;102711.86;;;6.98;100.00
37878;BME280;23715;53.652;8.516;2023-02-03T20:10:20;102728.89;;;6.96;100.00
37878;BME280;23715;53.652;8.516;2023-02-03T20:15:25;102727.18;;;7.05;100.00
37878;BME280;23715;53.652;8.516;2023-02-03T20:25:32;102725.15;;;7.00;100.00
37878;BME280;23715;53.652;8.516;2023-02-03T20:30:33;102715.14;;;7.05;100.00
37878;BME280;23715;53.652;8.516;2023-02-03T20:35:34;102722.15;;;7.30;100.00
37878;BME280;23715;53.652;8.516;2023-02-03T20:40:36;102705.17;;;7.31;100.00
37878;BME280;23715;53.652;8.516;2023-02-03T20:45:36;102705.02;;;7.13;100.00
37878;BME280;23715;53.652;8.516;2023-02-03T20:50:39;102701.95;;;7.43;100.00
37878;BME280;23715;53.652;8.516;2023-02-03T20:55:42;102718.81;;;7.35;100.00
37878;BME280;23715;53.652;8.516;2023-02-03T21:05:51;102717.75;;;7.70;100.00
37878;BME280;23715;53.652;8.516;2023-02-03T21:10:52;102715.00;;;8.21;100.00
37878;BME280;23715;53.652;8.516;2023-02-03T21:15:59;102709.70;;;8.30;100.00
37878;BME280;23715;53.652;8.516;2023-02-03T21:21:00;102728.95;;;8.19;100.00
37878;BME280;23715;53.652;8.516;2023-02-03T21:36:33;102752.14;;;8.20;100.00
37878;BME280;23715;53.652;8.516;2023-02-03T21:41:33;102747.19;;;8.40;100.00
37878;BME280;23715;53.652;8.516;2023-02-03T21:46:33;102748.57;;;8.30;100.00
37878;BME280;23715;53.652;8.516;2023-02-03T21:51:38;102759.53;;;7.94;100.00
37878;BME280;23715;53.652;8.516;2023-02-03T21:56:44;102757.06;;;7.59;100.00
37878;BME280;23715;53.652;8.516;2023-02-03T22:06:51;102772.63;;;7.39;100.00
37878;BME280;23715;53.652;8.516;2023-02-03T22:11:52;102775.73;;;7.38;100.00
37878;BME280;23715;53.652;8.516;2023-02-03T22:16:53;102775.73;;;7.28;100.00
37878;BME280;23715;53.652;8.516;2023-02-03T22:21:52;102788.84;;;7.46;100.00
37878;BME280;23715;53.652;8.516;2023-02-03T22:26:53;102815.06;;;7.26;100.00
37878;BME280;23715;53.652;8.516;2023-02-03T22:31:55;102827.50;;;7.49;100.00
37878;BME280;23715;53.652;8.516;2023-02-03T22:36:55;102842.16;;;7.40;100.00
37878;BME280;23715;53.652;8.516;2023-02-03T22:41:55;102857.80;;;7.17;100.00
37878;BME280;23715;53.652;8.516;2023-02-03T22:46:58;102871.05;;;7.20;100.00
37878;BME280;23715;53.652;8.516;2023-02-03T22:51:57;102872.44;;;7.19;100.00
37878;BME280;23715;53.652;8.516;2023-02-03T22:56:58;102881.59;;;7.25;100.00
37878;BME280;23715;53.652;8.516;2023-02-03T23:01:58;102892.41;;;7.10;100.00
37878;BME280;23715;53.652;8.516;2023-02-03T23:06:57;102907.84;;;7.15;100.00
37878;BME280;23715;53.652;8.516;2023-02-03T23:11:58;102904.56;;;7.31;100.00
37878;BME280;23715;53.652;8.516;2023-02-03T23:17:00;102908.21;;;7.62;100.00
37878;BME280;23715;53.652;8.516;2023-02-03T23:22:00;102922.41;;;7.64;100.00
37878;BME280;23715;53.652;8.516;2023-02-03T23:27:00;102933.09;;;7.54;100.00
37878;BME280;23715;53.652;8.516;2023-02-03T23:32:00;102923.19;;;7.56;100.00
37878;BME280;23715;53.652;8.516;2023-02-03T23:37:00;102924.05;;;7.56;100.00
37878;BME280;23715;53.652;8.516;2023-02-03T23:42:01;102951.92;;;7.62;100.00
37878;BME280;23715;53.652;8.516;2023-02-03T23:47:00;102949.91;;;7.57;100.00
37878;BME280;23715;53.652;8.516;2023-02-03T23:52:02;102967.62;;;7.72;100.00
37878;BME280;23715;53.652;8.516;2023-02-03T23:57:03;102961.45;;;7.70;100.00
